Date,TemperatureHighF,TemperatureAvgF,TemperatureLowF,DewpointHighF,DewpointAvgF,DewpointLowF,HumidityHigh,HumidityAvg,HumidityLow,PressureMaxIn,PressureMinIn,WindSpeedMaxMPH,WindSpeedAvgMPH,GustSpeedMaxMPH,PrecipitationSumIn
2014-1-1,63,49,40,43,37,32,84,65,46,30.20,30.11,2,0,0,0.00
2014-1-2,70,53,41,38,35,32,76,55,25,30.16,30.04,3,0,0,0.00
2014-1-3,67,52,43,43,38,34,82,62,38,30.05,29.94,2,0,0,0.00
2014-1-4,69,53,42,47,36,23,94,60,18,30.06,29.96,3,0,0,0.00
2014-1-5,69,59,47,27,14,6,43,19,12,30.18,30.05,11,2,0,0.00
2014-1-6,63,52,44,41,36,29,68,56,33,30.26,30.14,5,0,0,0.00
2014-1-7,63,52,45,51,41,35,93,68,41,30.20,30.12,1,0,0,0.00
2014-1-8,60,53,47,51,49,45,94,86,65,30.21,30.13,1,0,0,0.00
2014-1-9,64,52,47,51,45,38,95,78,51,30.25,30.17,2,0,0,0.00
2014-1-10,64,51,44,47,44,38,93,77,49,30.29,30.17,3,0,0,0.00
2014-1-11,55,50,45,52,47,43,95,90,79,30.27,30.14,4,0,0,0.00
2014-1-12,62,51,44,44,39,28,94,66,33,30.38,30.24,4,0,0,0.00
2014-1-13,68,56,45,36,34,30,66,45,25,30.42,30.32,11,2,0,0.00
2014-1-14,72,58,47,38,32,24,65,39,19,30.43,30.30,6,0,0,0.00
2014-1-15,74,63,47,40,27,14,74,29,11,30.31,30.18,15,2,0,0.00
2014-1-16,77,62,50,36,22,8,60,25,9,30.20,30.10,10,1,0,0.00
2014-1-17,74,55,43,36,30,24,61,40,24,30.17,30.09,3,0,0,0.00
2014-1-18,75,55,42,38,32,23,70,45,21,30.16,30.05,2,0,0,0.00
2014-1-19,73,54,43,38,32,29,69,46,24,30.12,30.04,3,0,0,0.00
2014-1-20,71,55,43,43,36,28,68,51,25,30.21,30.09,2,0,0,0.00
2014-1-21,73,54,41,38,29,21,72,42,15,30.25,30.14,3,0,0,0.00
2014-1-22,72,53,42,43,33,20,84,52,14,30.16,29.91,2,0,0,0.00
2014-1-23,70,57,43,44,31,20,88,45,17,30.00,29.85,16,2,0,0.00
2014-1-24,69,54,45,45,40,37,89,63,31,30.26,29.99,3,0,0,0.00
2014-1-25,72,57,46,45,39,29,87,56,28,30.26,30.11,4,0,0,0.00
2014-1-26,71,56,47,50,40,32,92,60,28,30.12,30.02,2,0,0,0.00
2014-1-27,62,53,48,50,48,45,91,83,57,30.18,30.06,1,0,0,0.00
2014-1-28,66,57,51,56,52,48,94,84,62,30.25,30.17,3,0,0,0.00
2014-1-29,59,56,53,58,55,51,96,94,90,30.20,29.98,1,0,0,0.03
2014-1-30,63,54,50,52,48,44,95,80,57,29.98,29.84,3,0,0,0.07
2014-1-31,63,52,44,46,37,27,89,62,27,30.07,29.89,3,0,0,0.00
2014-2-1,60,49,41,42,35,24,83,63,26,30.15,30.05,5,0,0,0.00
2014-2-2,52,48,45,43,40,34,85,75,56,30.05,29.83,11,2,0,0.18
2014-2-3,45,44,44,40,38,37,82,79,76,30.00,29.97,3,1,0,0.00
2014-2-6,50,48,49,49,42,-100,94,89,92,29.97,29.76,2,-40,0,0.00
2014-2-7,54,52,50,52,50,48,95,92,84,29.97,29.86,12,1,0,0.63
2014-2-8,58,55,52,57,54,51,97,96,94,30.03,29.91,11,2,0,1.73
2014-2-9,58,57,56,57,56,55,98,98,97,30.03,29.93,4,1,0,2.32
2014-2-10,58,54,50,57,53,49,98,96,87,30.16,29.98,2,0,0,0.02
2014-2-11,60,53,49,52,50,48,97,89,68,30.13,30.06,4,0,0,0.00
2014-2-12,60,53,48,51,49,47,96,86,67,30.16,30.06,4,0,0,0.00
2014-2-13,70,59,52,56,54,51,97,84,61,30.10,29.98,2,0,0,0.00
2014-2-14,67,57,53,58,54,51,98,90,67,30.05,29.93,1,0,0,0.02
2014-2-15,60,56,51,54,52,50,96,88,78,29.93,29.86,6,1,0,0.02
2014-2-16,66,55,45,55,43,27,98,71,23,30.09,29.91,2,0,0,0.03
2014-2-17,64,52,42,46,42,37,94,72,39,30.06,29.97,2,0,0,0.00
2014-2-18,65,53,46,50,47,44,93,79,52,30.07,29.97,1,0,0,0.00
2014-2-19,67,56,49,52,46,40,95,71,41,30.09,29.97,3,0,0,0.01
2014-2-20,71,55,44,45,40,33,87,62,25,30.09,29.99,3,0,0,0.00
2014-2-21,72,55,45,48,44,37,89,69,28,30.00,29.87,2,0,0,0.00
2014-2-22,69,54,45,51,47,43,96,80,42,29.89,29.82,4,0,0,0.00
2014-2-23,68,53,45,51,48,43,96,83,54,29.90,29.84,3,0,0,0.00
2014-2-24,75,56,45,54,48,44,98,78,39,29.88,29.80,2,0,0,0.00
2014-2-25,61,54,51,50,49,47,93,82,64,29.86,29.79,4,0,0,0.00
2014-2-26,59,56,51,56,52,47,96,87,74,29.83,29.54,4,1,0,0.90
2014-2-27,66,59,54,54,49,41,93,72,49,29.77,29.39,6,1,0,0.06
2014-2-28,61,56,53,55,51,40,95,84,47,29.39,29.24,7,1,0,1.11
2014-3-1,68,58,52,53,48,44,93,71,47,29.69,29.34,7,1,0,0.03
2014-3-2,58,55,50,56,51,48,95,87,78,30.04,29.68,8,1,0,0.05
2014-3-3,61,55,50,53,49,48,95,81,63,30.03,29.92,4,0,0,0.09
2014-3-4,65,57,54,55,53,50,95,86,69,30.00,29.92,3,0,0,0.05
2014-3-5,67,59,54,58,55,53,97,87,63,29.98,29.87,3,0,0,0.46
2014-3-6,66,57,50,58,53,48,98,87,61,30.08,29.92,4,0,0,0.01
2014-3-7,69,56,46,49,46,41,95,74,38,30.06,29.99,5,0,0,0.00
2014-3-8,73,59,48,53,49,39,97,73,47,30.09,29.98,2,0,0,0.00
2014-3-9,74,63,54,57,51,40,82,66,48,30.06,29.95,2,0,0,0.00
2014-3-10,72,61,53,55,48,39,93,64,37,30.11,29.98,3,0,0,0.03
2014-3-11,76,62,49,37,29,21,54,31,19,30.07,29.89,4,0,0,0.00
2014-3-12,77,64,55,33,26,19,37,24,16,30.00,29.89,8,1,0,0.00
2014-3-13,76,61,48,50,38,23,90,48,20,30.03,29.87,3,0,0,0.00
2014-3-14,71,59,51,51,49,47,92,71,44,30.20,30.03,2,0,0,0.00
2014-3-15,78,60,49,54,49,43,93,71,29,30.29,30.20,2,0,0,0.00
2014-3-16,72,57,47,54,49,45,94,76,48,30.29,30.19,2,0,0,0.00
2014-3-17,72,58,48,49,45,38,85,64,29,30.20,29.96,3,0,0,0.00
2014-3-18,74,58,44,44,35,24,83,47,17,29.96,29.89,5,0,0,0.00
2014-3-19,78,60,46,47,38,28,74,48,21,30.05,29.94,4,0,0,0.00
2014-3-20,71,58,50,51,46,38,89,66,40,30.04,29.93,2,0,0,0.00
2014-3-21,64,54,48,49,46,44,89,76,56,29.97,29.92,4,1,0,0.00
2014-3-22,66,54,45,49,46,43,95,77,54,30.10,29.97,4,0,0,0.00
2014-3-23,65,55,47,50,47,44,93,75,54,30.15,30.08,3,0,0,0.00
2014-3-24,71,55,46,53,48,43,96,79,46,30.16,30.02,3,0,0,0.00
2014-3-25,61,54,46,55,50,44,94,86,72,30.05,29.86,4,0,0,0.01
2014-3-26,63,55,51,54,50,48,95,84,59,29.97,29.79,9,1,0,0.56
2014-3-27,66,56,50,55,49,44,96,79,47,30.13,29.97,3,0,0,0.41
2014-3-28,71,60,54,53,50,47,91,71,46,30.18,30.11,5,1,0,0.01
2014-3-29,58,55,48,56,52,47,96,90,74,30.12,30.00,5,1,0,0.93
2014-3-30,62,53,45,52,46,42,98,79,52,30.12,30.03,4,0,0,0.00
2014-3-31,56,50,46,48,44,42,94,83,62,30.07,29.84,6,1,0,0.66
2014-4-1,56,48,44,48,44,42,94,87,60,29.93,29.82,6,1,0,0.87
2014-4-2,65,52,44,47,44,40,95,76,41,30.10,29.86,4,0,0,0.02
2014-4-3,64,54,46,48,46,44,94,75,53,30.11,30.04,2,0,0,0.00
2014-4-4,62,54,49,52,48,44,95,80,57,30.05,29.97,2,0,0,0.30
2014-4-5,70,56,45,50,46,43,96,73,42,30.19,30.04,4,0,0,0.00
2014-4-6,76,60,48,54,50,46,95,71,40,30.23,30.11,2,0,0,0.00
2014-4-7,86,66,52,57,51,44,92,64,23,30.14,30.06,3,0,0,0.00
2014-4-8,80,63,53,58,53,51,96,73,44,30.10,30.04,4,0,0,0.00
2014-4-9,65,56,52,53,51,50,95,83,62,30.09,30.00,2,0,0,0.00
2014-4-10,74,58,51,55,51,48,93,78,49,30.04,29.90,4,0,0,0.00
2014-4-11,64,56,52,52,50,48,94,82,64,29.95,29.87,3,0,0,0.00
2014-4-12,64,57,54,50,48,47,83,73,59,29.94,29.86,4,1,0,0.00
2014-4-13,70,59,53,52,50,46,91,72,53,30.05,29.94,3,0,0,0.00
2014-4-14,67,58,50,53,51,48,93,79,58,30.11,30.01,3,0,0,0.00
2014-4-15,68,59,53,53,50,47,87,74,55,30.08,29.91,3,0,0,0.00
2014-4-16,75,61,49,52,49,45,92,67,37,29.92,29.82,2,0,0,0.00
2014-4-17,72,61,50,54,50,49,95,70,48,29.86,29.79,4,0,0,0.00
2014-4-18,66,58,50,52,48,45,93,73,56,29.95,29.86,3,0,0,0.00
2014-4-19,67,57,50,54,49,45,89,76,57,30.11,29.95,5,1,0,0.00